Rick Husband Amarillo International Airport
KAMA : now visible

Airfield :











YOU CAN JOIN US ON...

 
LOGIN :

Register | Disclaimer

   EN    FR    IT 

 









Legend :    VFR   Marginal VFR   IFR   Intensive IFR   Very Intensive IFR
Visi :
Ceiling :
>= 8 km
>= 3000ft
5 to 8 km
1000 to 3000 ft
1500m to 5 km
500 to 1000 ft
800 to 1500m
200 to 500 ft
< 800m
< 200 ft
Symbols :   Thunderstorms  Fog  Heavy snow  Heavy precipitations  Wind > 20 kt







- Airport Elevation : 3607 ft
- IATA code : AMA


KAMA - Rick Husband Amarillo International

CURRENT METAR :
  • 261600Z 15016KT 7SM BKN005 OVC009 20/18 A3000 RMK AO2 T02000178

EXPIRED METARs :
  • 261553Z 15017KT 8SM OVC007 20/18 A3001 RMK AO2 CIG 004V010 SLP119 T02000178
  • 261527Z 15013G22KT 6SM BR BKN005 OVC010 20/18 A3001 RMK AO2 CIG 004V007 T02000183
  • 261453Z 16015KT 7SM BKN006 OVC014 19/18 A3002 RMK AO2 CIG 004V009 SLP126 T01940178 53010
  • 261442Z 16013KT 6SM BR OVC006 19/18 A3002 RMK AO2 CIG 004V009 T01890183
  • 261420Z 15012KT 6SM BR BKN005 BKN014 OVC022 19/18 A3001 RMK AO2 CIG 003V009 T01890178
  • 261353Z 15014KT 6SM BR BKN004 OVC022 19/18 A3001 RMK AO2 SLP121 T01890178
  • 261336Z 15014KT 6SM BR BKN004 OVC022 18/17 A3001 RMK AO2 T01830172

TAF KAMA
Valid from the 26 at 15:00 until the 27 at 12:00 UTC


261502Z 2615/2712 18011KT P6SM BKN006 OVC020
FM262100 18013KT 6SM +TSRA BKN020CB OVC045
FM262300 15020G30KT P6SM OVC050
FM270300 16014KT 6SM +TSRA BKN035CB OVC050
FM270600 18009KT P6SM SCT040 WS020/20035KT
KZAB FIR / North America



MET'MAP, your aeronautical weather chart ! - Copyright ORBIFLY December 2007 - Disclaimer

ORBIFLY MET'MAP TEAM :

Programming & Development : Alexandra Zaïnal
Concept & Development : Baudouin d'Aumeries
Co-Development & Prog : Marc-Olivier Méhu
Technical & hardware support : Manuel Goepfert

Contact : metmap@orbifly.com




SOURCES & CREDITS :

   NOAA       Earth
Advisory